createdAt,value
2017-08-28T00:02:25.914Z,100734.64
2017-08-28T00:04:53.303Z,100737.06
2017-08-28T00:07:20.706Z,100731.47
2017-08-28T00:09:48.411Z,100736.68
2017-08-28T00:12:15.811Z,100735.50
2017-08-28T00:14:43.206Z,100733.55
2017-08-28T00:17:10.646Z,100736.97
2017-08-28T00:19:38.040Z,100730.96
2017-08-28T00:22:05.434Z,100731.05
2017-08-28T00:24:32.939Z,100729.30
2017-08-28T00:27:00.343Z,100729.19
2017-08-28T00:29:27.747Z,100723.94
2017-08-28T00:31:55.256Z,100722.96
2017-08-28T00:34:22.653Z,100719.46
2017-08-28T00:36:50.057Z,100721.94
2017-08-28T00:39:17.618Z,100711.89
2017-08-28T00:41:45.023Z,100715.30
2017-08-28T00:44:12.430Z,100711.17
2017-08-28T00:46:39.982Z,100713.95
2017-08-28T00:49:07.387Z,100716.94
2017-08-28T00:51:34.784Z,100712.23
2017-08-28T00:54:02.346Z,100710.93
2017-08-28T00:56:29.750Z,100709.34
2017-08-28T00:58:57.147Z,100705.31
2017-08-28T01:01:25.038Z,100703.15
2017-08-28T01:03:52.439Z,100703.16
2017-08-28T01:06:19.838Z,100704.19
2017-08-28T01:08:47.254Z,100703.43
2017-08-28T01:11:15.495Z,100704.31
2017-08-28T01:13:42.895Z,100707.94
2017-08-28T01:16:10.403Z,100705.89
2017-08-28T01:18:37.810Z,100708.44
2017-08-28T01:21:05.227Z,100701.73
2017-08-28T01:23:32.793Z,100700.80
2017-08-28T01:26:00.186Z,100699.71
2017-08-28T01:28:27.583Z,100702.74
2017-08-28T01:30:54.990Z,100691.34
2017-08-28T01:33:22.391Z,100698.72
2017-08-28T01:35:49.782Z,100699.08
2017-08-28T01:38:17.335Z,100694.38
2017-08-28T01:40:44.735Z,100695.09
2017-08-28T01:43:12.136Z,100696.98
2017-08-28T01:45:39.682Z,100698.22
2017-08-28T01:48:07.092Z,100696.00
2017-08-28T01:50:34.491Z,100701.67
2017-08-28T01:53:01.915Z,100699.89
2017-08-28T01:55:29.315Z,100703.45
2017-08-28T01:57:56.711Z,100698.30
2017-08-28T02:00:24.255Z,100696.95
2017-08-28T02:02:51.651Z,100688.14
2017-08-28T02:05:19.046Z,100688.97
2017-08-28T02:07:46.798Z,100690.78
2017-08-28T02:10:14.203Z,100684.55
2017-08-28T02:12:41.602Z,100691.67
2017-08-28T02:15:09.051Z,100691.97
2017-08-28T02:17:36.446Z,100694.33
2017-08-28T02:20:03.856Z,100694.47
2017-08-28T02:22:31.260Z,100689.50
2017-08-28T02:24:58.659Z,100693.14
2017-08-28T02:27:26.055Z,100695.81
2017-08-28T02:29:53.463Z,100695.23
2017-08-28T02:32:20.857Z,100699.00
2017-08-28T02:34:48.252Z,100699.28
2017-08-28T02:37:25.643Z,100694.87
2017-08-28T02:39:53.040Z,100686.69
2017-08-28T02:42:20.435Z,100683.63
2017-08-28T02:44:47.837Z,100683.13
2017-08-28T02:47:15.232Z,100688.98
2017-08-28T02:49:42.637Z,100691.47
2017-08-28T02:52:10.137Z,100693.77
2017-08-28T02:54:37.532Z,100691.64
2017-08-28T02:57:04.931Z,100695.41
2017-08-28T02:59:32.434Z,100689.45
2017-08-28T03:01:59.831Z,100687.31
2017-08-28T03:04:27.236Z,100691.34
2017-08-28T03:06:54.635Z,100692.69
2017-08-28T03:09:22.034Z,100689.49
2017-08-28T03:11:49.439Z,100692.25
2017-08-28T03:14:16.854Z,100681.91
2017-08-28T03:16:44.242Z,100689.56
2017-08-28T03:19:11.643Z,100689.44
2017-08-28T03:21:39.195Z,100694.02
2017-08-28T03:24:06.594Z,100693.47
2017-08-28T03:26:33.990Z,100692.31
2017-08-28T03:29:01.503Z,100698.63
2017-08-28T03:31:28.904Z,100693.24
2017-08-28T03:33:56.307Z,100699.98
2017-08-28T03:36:23.875Z,100699.73
2017-08-28T03:38:51.271Z,100699.80
2017-08-28T03:41:18.677Z,100699.99
2017-08-28T03:43:46.223Z,100702.36
2017-08-28T03:46:13.619Z,100702.14
2017-08-28T03:48:41.023Z,100698.84
2017-08-28T03:51:08.573Z,100704.52
2017-08-28T03:53:35.975Z,100703.06
2017-08-28T03:56:03.364Z,100700.79
2017-08-28T03:58:30.804Z,100701.91
2017-08-28T04:00:58.199Z,100703.38
2017-08-28T04:03:25.595Z,100695.37
2017-08-28T04:05:53.149Z,100703.08
2017-08-28T04:08:20.543Z,100708.34
2017-08-28T04:10:47.934Z,100707.89
2017-08-28T04:13:15.483Z,100705.34
2017-08-28T04:15:42.878Z,100707.59
2017-08-28T04:18:10.275Z,100704.66
2017-08-28T04:20:37.779Z,100703.38
2017-08-28T04:23:05.179Z,100707.25
2017-08-28T04:25:32.580Z,100710.92
2017-08-28T04:28:00.019Z,100712.20
2017-08-28T04:30:27.417Z,100713.80
2017-08-28T04:32:54.810Z,100712.96
2017-08-28T04:35:22.359Z,100707.67
2017-08-28T04:37:49.753Z,100706.84
2017-08-28T04:40:17.169Z,100707.90
2017-08-28T04:42:44.587Z,100706.84
2017-08-28T04:45:11.979Z,100710.30
2017-08-28T04:47:39.394Z,100706.27
2017-08-28T04:50:06.915Z,100708.79
2017-08-28T04:52:34.318Z,100711.48
2017-08-28T04:55:01.715Z,100710.23
2017-08-28T04:57:29.275Z,100715.09
2017-08-28T04:59:56.675Z,100713.23
2017-08-28T05:02:24.079Z,100711.48
2017-08-28T05:04:51.922Z,100714.45
2017-08-28T05:07:19.315Z,100706.55
2017-08-28T05:09:46.709Z,100707.75
2017-08-28T05:12:14.154Z,100711.44
2017-08-28T05:14:41.552Z,100704.78
2017-08-28T05:17:08.940Z,100701.62
2017-08-28T05:19:36.812Z,100705.25
2017-08-28T05:22:04.206Z,100701.31
2017-08-28T05:24:31.606Z,100705.70
2017-08-28T05:26:59.027Z,100699.56
2017-08-28T05:29:26.427Z,100702.19
2017-08-28T05:31:53.822Z,100698.16
2017-08-28T05:34:21.375Z,100702.20
2017-08-28T05:36:48.766Z,100700.53
2017-08-28T05:39:16.163Z,100710.11
2017-08-28T05:41:43.604Z,100707.91
2017-08-28T05:44:11.002Z,100715.09
2017-08-28T05:46:38.395Z,100716.39
2017-08-28T05:49:06.155Z,100721.49
2017-08-28T05:51:33.550Z,100720.50
2017-08-28T05:54:00.954Z,100720.27
2017-08-28T05:56:28.515Z,100717.91
2017-08-28T05:58:55.906Z,100711.41
2017-08-28T06:01:23.305Z,100724.86
2017-08-28T06:03:50.852Z,100723.96
2017-08-28T06:06:18.248Z,100721.75
2017-08-28T06:08:45.670Z,100719.80
2017-08-28T06:11:13.082Z,100723.26
2017-08-28T06:13:40.480Z,100722.42
2017-08-28T06:16:11.363Z,100717.67
2017-08-28T06:18:38.778Z,100723.72
2017-08-28T06:21:06.171Z,100722.94
2017-08-28T06:23:33.566Z,100715.81
2017-08-28T06:26:01.002Z,100719.39
2017-08-28T06:28:28.404Z,100720.53
2017-08-28T06:30:55.800Z,100710.54
2017-08-28T06:33:29.574Z,100710.01
2017-08-28T06:35:56.972Z,100713.06
2017-08-28T06:38:24.375Z,100710.64
2017-08-28T06:40:51.812Z,100710.72
2017-08-28T06:43:19.208Z,100723.55
2017-08-28T06:45:46.603Z,100715.85
2017-08-28T06:48:14.350Z,100725.64
2017-08-28T06:50:41.776Z,100726.30
2017-08-28T06:53:09.179Z,100722.30
2017-08-28T06:55:36.731Z,100733.92
2017-08-28T06:58:04.130Z,100734.30
2017-08-28T07:00:31.526Z,100735.75
2017-08-28T07:02:58.940Z,100734.68
2017-08-28T07:05:26.338Z,100732.03
2017-08-28T07:07:53.734Z,100735.25
2017-08-28T07:10:21.783Z,100743.70
2017-08-28T07:12:49.194Z,100736.83
2017-08-28T07:15:16.606Z,100733.84
2017-08-28T07:17:44.030Z,100736.80
2017-08-28T07:20:11.466Z,100738.36
2017-08-28T07:22:38.862Z,100738.98
2017-08-28T07:25:06.618Z,100747.08
2017-08-28T07:27:34.031Z,100747.58
2017-08-28T07:30:01.423Z,100745.37
2017-08-28T07:32:28.971Z,100754.17
2017-08-28T07:34:56.367Z,100752.48
2017-08-28T07:37:23.758Z,100754.19
2017-08-28T07:39:51.312Z,100751.59
2017-08-28T07:42:18.698Z,100752.39
2017-08-28T07:44:46.086Z,100750.07
2017-08-28T07:47:13.926Z,100751.77
2017-08-28T07:49:41.325Z,100750.37
2017-08-28T07:52:08.712Z,100757.61
2017-08-28T07:54:46.795Z,100760.51
2017-08-28T07:57:17.549Z,100761.50
2017-08-28T07:59:44.929Z,100765.83
2017-08-28T08:02:12.351Z,100766.27
2017-08-28T08:04:39.739Z,100764.74
2017-08-28T08:07:07.130Z,100764.53
2017-08-28T08:09:34.628Z,100756.22
2017-08-28T08:12:02.036Z,100753.55
2017-08-28T08:14:29.414Z,100750.45
2017-08-28T08:16:56.853Z,100747.93
2017-08-28T08:19:24.239Z,100752.56
2017-08-28T08:21:51.626Z,100756.28
2017-08-28T08:24:19.127Z,100755.08
2017-08-28T08:26:46.510Z,100751.59
2017-08-28T08:29:13.894Z,100755.02
2017-08-28T08:31:41.438Z,100762.89
2017-08-28T08:34:14.462Z,100760.73
2017-08-28T08:36:41.860Z,100757.17
2017-08-28T08:39:09.257Z,100755.59
2017-08-28T08:41:36.647Z,100760.73
2017-08-28T08:44:04.082Z,100762.23
2017-08-28T08:46:31.470Z,100762.72
2017-08-28T08:48:58.862Z,100758.87
2017-08-28T08:51:26.673Z,100752.77
2017-08-28T08:53:54.061Z,100763.59
2017-08-28T08:56:21.463Z,100762.16
2017-08-28T08:58:49.014Z,100759.26
2017-08-28T09:01:16.447Z,100759.03
2017-08-28T09:03:43.851Z,100761.45
2017-08-28T09:06:11.409Z,100760.18
2017-08-28T09:08:38.795Z,100759.13
2017-08-28T09:11:06.234Z,100762.77
2017-08-28T09:13:33.659Z,100756.27
2017-08-28T09:16:01.056Z,100758.09
2017-08-28T09:18:28.456Z,100752.05
2017-08-28T09:20:55.887Z,100743.19
2017-08-28T09:23:23.342Z,100745.18
2017-08-28T09:25:50.742Z,100749.09
2017-08-28T09:28:18.202Z,100746.95
2017-08-28T09:30:45.603Z,100746.91
2017-08-28T09:33:13.004Z,100750.50
2017-08-28T09:35:40.502Z,100740.22
2017-08-28T09:38:07.898Z,100746.22
2017-08-28T09:40:35.294Z,100745.96
2017-08-28T09:43:02.870Z,100746.38
2017-08-28T09:45:30.254Z,100751.02
2017-08-28T09:47:57.651Z,100752.06
2017-08-28T09:50:25.095Z,100755.95
2017-08-28T09:52:52.496Z,100760.84
2017-08-28T09:55:19.887Z,100755.63
2017-08-28T09:57:47.628Z,100756.23
2017-08-28T10:00:15.026Z,100753.45
2017-08-28T10:02:42.436Z,100753.11
2017-08-28T10:05:09.989Z,100746.25
2017-08-28T10:07:37.382Z,100753.22
2017-08-28T10:10:04.781Z,100748.11
2017-08-28T10:12:32.221Z,100751.08
2017-08-28T10:14:59.628Z,100747.45
2017-08-28T10:17:27.043Z,100749.73
2017-08-28T10:19:54.458Z,100753.73
2017-08-28T10:22:21.856Z,100746.63
2017-08-28T10:25:04.233Z,100741.62
2017-08-28T10:27:31.075Z,100745.40
2017-08-28T10:29:58.514Z,100737.89
2017-08-28T10:32:25.922Z,100738.06
2017-08-28T10:34:53.314Z,100733.42
2017-08-28T10:37:20.713Z,100736.30
2017-08-28T10:39:48.258Z,100735.20
2017-08-28T10:42:15.726Z,100737.53
2017-08-28T10:44:43.126Z,100733.19
2017-08-28T10:47:10.900Z,100737.62
2017-08-28T10:49:38.295Z,100734.12
2017-08-28T10:52:05.699Z,100717.59
2017-08-28T10:54:33.279Z,100721.92
2017-08-28T10:57:00.679Z,100718.21
2017-08-28T10:59:28.084Z,100723.62
2017-08-28T11:01:55.555Z,100723.08
2017-08-28T11:04:22.939Z,100719.66
2017-08-28T11:06:50.335Z,100716.22
2017-08-28T11:09:17.748Z,100714.42
2017-08-28T11:11:45.148Z,100718.87
2017-08-28T11:14:12.545Z,100715.14
2017-08-28T11:16:39.984Z,100718.63
2017-08-28T11:19:07.389Z,100714.57
2017-08-28T11:21:34.779Z,100713.50
2017-08-28T11:24:02.547Z,100714.10
2017-08-28T11:26:29.942Z,100711.37
2017-08-28T11:28:57.347Z,100713.86
2017-08-28T11:31:25.131Z,100706.45
2017-08-28T11:33:52.522Z,100703.77
2017-08-28T11:36:19.918Z,100703.08
2017-08-28T11:38:47.428Z,100693.79
2017-08-28T11:41:14.827Z,100699.45
2017-08-28T11:43:42.228Z,100695.23
2017-08-28T11:46:09.780Z,100686.46
2017-08-28T11:48:37.174Z,100690.50
2017-08-28T11:51:04.568Z,100686.57
2017-08-28T11:53:32.122Z,100685.73
2017-08-28T11:55:59.512Z,100683.67
2017-08-28T11:58:26.923Z,100690.20
2017-08-28T12:00:54.372Z,100694.06
2017-08-28T12:03:21.775Z,100689.19
2017-08-28T12:05:49.171Z,100686.35
2017-08-28T12:08:16.590Z,100680.95
2017-08-28T12:10:43.996Z,100688.27
2017-08-28T12:13:11.388Z,100684.25
2017-08-28T12:15:38.943Z,100672.41
2017-08-28T12:18:06.339Z,100676.36
2017-08-28T12:20:33.735Z,100672.19
2017-08-28T12:23:01.282Z,100664.16
2017-08-28T12:25:28.702Z,100664.57
2017-08-28T12:27:56.105Z,100654.89
2017-08-28T12:30:23.538Z,100656.66
2017-08-28T12:32:50.939Z,100651.13
2017-08-28T12:35:18.322Z,100646.54
2017-08-28T12:37:45.886Z,100650.23
2017-08-28T12:40:13.284Z,100647.88
2017-08-28T12:42:40.686Z,100646.00
2017-08-28T12:45:08.234Z,100650.37
2017-08-28T12:47:35.635Z,100645.85
2017-08-28T12:50:03.074Z,100645.38
2017-08-28T12:52:30.622Z,100636.39
2017-08-28T12:54:58.028Z,100639.46
2017-08-28T12:57:25.419Z,100641.53
2017-08-28T12:59:52.830Z,100639.11
2017-08-28T13:02:20.227Z,100642.39
2017-08-28T13:04:47.622Z,100633.53
2017-08-28T13:07:15.186Z,100628.52
2017-08-28T13:09:42.570Z,100623.16
2017-08-28T13:12:09.968Z,100617.98
2017-08-28T13:14:37.506Z,100621.20
2017-08-28T13:17:04.902Z,100616.84
2017-08-28T13:19:32.315Z,100619.13
2017-08-28T13:21:59.959Z,100610.23
2017-08-28T13:24:27.663Z,100610.61
2017-08-28T13:26:55.082Z,100608.39
2017-08-28T13:29:23.427Z,100611.53
2017-08-28T13:31:50.834Z,100619.16
2017-08-28T13:34:18.220Z,100617.72
2017-08-28T13:36:45.770Z,100613.73
2017-08-28T13:39:14.067Z,100613.25
2017-08-28T13:41:41.482Z,100610.50
2017-08-28T13:44:09.546Z,100614.64
2017-08-28T13:46:37.641Z,100615.56
2017-08-28T13:49:05.038Z,100603.04
2017-08-28T13:51:32.590Z,100604.47
2017-08-28T13:53:59.987Z,100601.62
2017-08-28T13:56:27.435Z,100592.45
2017-08-28T13:58:54.996Z,100591.30
2017-08-28T14:01:22.391Z,100592.28
2017-08-28T14:03:49.782Z,100590.13
2017-08-28T14:06:17.231Z,100592.22
2017-08-28T14:08:44.641Z,100592.49
2017-08-28T14:11:12.030Z,100593.42
2017-08-28T14:13:39.580Z,100593.17
2017-08-28T14:16:06.975Z,100592.14
2017-08-28T14:18:34.384Z,100584.16
2017-08-28T14:21:01.931Z,100585.45
2017-08-28T14:23:29.332Z,100586.04
2017-08-28T14:25:56.746Z,100578.31
2017-08-28T14:28:24.298Z,100574.28
2017-08-28T14:30:51.727Z,100573.19
2017-08-28T14:33:19.127Z,100574.62
2017-08-28T14:35:48.015Z,100571.80
2017-08-28T14:38:15.410Z,100571.67
2017-08-28T14:40:42.819Z,100570.05
2017-08-28T14:43:10.697Z,100569.44
2017-08-28T14:45:38.099Z,100566.23
2017-08-28T14:48:05.530Z,100562.61
2017-08-28T14:50:32.951Z,100564.36
2017-08-28T14:53:00.345Z,100566.00
2017-08-28T14:55:27.740Z,100561.99
2017-08-28T14:57:55.166Z,100560.84
2017-08-28T15:00:22.563Z,100557.21
2017-08-28T15:02:49.959Z,100559.72
2017-08-28T15:05:17.511Z,100550.64
2017-08-28T15:07:44.912Z,100551.61
2017-08-28T15:10:12.310Z,100546.46
2017-08-28T15:12:39.823Z,100543.06
2017-08-28T15:15:07.215Z,100543.53
2017-08-28T15:17:34.607Z,100540.91
2017-08-28T15:20:02.159Z,100545.79
2017-08-28T15:22:29.555Z,100544.07
2017-08-28T15:24:56.958Z,100544.36
2017-08-28T15:27:24.510Z,100536.30
2017-08-28T15:29:51.910Z,100534.00
2017-08-28T15:32:19.351Z,100532.31
2017-08-28T15:34:46.943Z,100532.94
2017-08-28T15:37:14.410Z,100529.78
2017-08-28T15:39:41.819Z,100528.23
2017-08-28T15:42:09.279Z,100526.31
2017-08-28T15:44:36.726Z,100527.61
2017-08-28T15:47:04.127Z,100523.88
2017-08-28T15:49:32.178Z,100522.36
2017-08-28T15:51:59.618Z,100519.80
2017-08-28T15:54:27.031Z,100511.45
2017-08-28T15:56:54.473Z,100507.11
2017-08-28T15:59:21.970Z,100510.59
2017-08-28T16:01:49.363Z,100508.17
2017-08-28T16:04:16.924Z,100509.30
2017-08-28T16:06:44.367Z,100507.69
2017-08-28T16:09:11.773Z,100515.37
2017-08-28T16:11:39.211Z,100513.42
2017-08-28T16:14:06.683Z,100514.31
2017-08-28T16:16:34.072Z,100511.28
2017-08-28T16:19:01.552Z,100513.12
2017-08-28T16:21:29.038Z,100512.95
2017-08-28T16:23:56.539Z,100514.42
2017-08-28T16:26:24.022Z,100512.14
2017-08-28T16:28:51.471Z,100516.88
2017-08-28T16:31:18.879Z,100511.48
2017-08-28T16:33:46.705Z,100503.27
2017-08-28T16:36:14.102Z,100513.38
2017-08-28T16:38:41.499Z,100508.08
2017-08-28T16:41:09.071Z,100510.53
2017-08-28T16:43:36.479Z,100507.80
2017-08-28T16:46:03.878Z,100503.52
2017-08-28T16:48:31.390Z,100506.14
2017-08-28T16:50:58.787Z,100499.39
2017-08-28T16:53:26.190Z,100499.38
2017-08-28T16:55:53.639Z,100493.72
2017-08-28T16:58:21.043Z,100495.68
2017-08-28T17:00:48.453Z,100492.66
2017-08-28T17:03:15.958Z,100498.72
2017-08-28T17:05:43.354Z,100496.84
2017-08-28T17:08:10.771Z,100496.52
2017-08-28T17:10:38.284Z,100492.32
2017-08-28T17:13:05.683Z,100498.25
2017-08-28T17:15:33.079Z,100492.97
2017-08-28T17:18:00.631Z,100498.81
2017-08-28T17:20:28.026Z,100501.61
2017-08-28T17:22:55.443Z,100504.21
2017-08-28T17:25:22.867Z,100506.77
2017-08-28T17:27:50.267Z,100514.02
2017-08-28T17:30:17.666Z,100510.66
2017-08-28T17:32:45.086Z,100513.02
2017-08-28T17:35:12.494Z,100516.84
2017-08-28T17:37:48.155Z,100514.13
2017-08-28T17:40:15.558Z,100522.09
2017-08-28T17:42:42.956Z,100517.66
2017-08-28T17:45:10.526Z,100513.42
2017-08-28T17:47:37.924Z,100517.00
2017-08-28T17:50:05.344Z,100515.17
2017-08-28T17:52:32.894Z,100506.23
2017-08-28T17:55:00.290Z,100517.72
2017-08-28T17:57:27.683Z,100513.84
2017-08-28T17:59:55.245Z,100511.98
2017-08-28T18:02:22.635Z,100510.03
2017-08-28T18:04:50.026Z,100511.20
2017-08-28T18:07:17.454Z,100508.75
2017-08-28T18:09:44.847Z,100516.47
2017-08-28T18:12:12.244Z,100508.61
2017-08-28T18:14:39.651Z,100503.58
2017-08-28T18:17:07.076Z,100505.69
2017-08-28T18:19:35.051Z,100508.09
2017-08-28T18:22:03.552Z,100509.33
2017-08-28T18:24:30.944Z,100512.69
2017-08-28T18:26:58.334Z,100515.03
2017-08-28T18:29:25.890Z,100515.41
2017-08-28T18:31:53.291Z,100524.70
2017-08-28T18:34:21.144Z,100521.48
2017-08-28T18:36:48.593Z,100523.56
2017-08-28T18:39:16.015Z,100519.48
2017-08-28T18:41:44.324Z,100523.69
2017-08-28T18:44:11.891Z,100520.86
2017-08-28T18:46:39.299Z,100518.13
2017-08-28T18:49:06.735Z,100517.44
2017-08-28T18:51:35.101Z,100520.19
2017-08-28T18:54:03.675Z,100524.28
2017-08-28T18:56:31.099Z,100528.56
2017-08-28T18:59:02.651Z,100520.77
2017-08-28T19:01:30.065Z,100523.84
2017-08-28T19:03:57.537Z,100522.42
2017-08-28T19:06:26.876Z,100526.16
2017-08-28T19:08:54.275Z,100525.30
2017-08-28T19:11:21.695Z,100532.13
2017-08-28T19:13:49.198Z,100532.78
2017-08-28T19:16:16.598Z,100534.27
2017-08-28T19:18:43.991Z,100530.95
2017-08-28T19:21:11.416Z,100533.33
2017-08-28T19:23:38.814Z,100531.03
2017-08-28T19:26:06.206Z,100528.98
2017-08-28T19:28:33.819Z,100528.20
2017-08-28T19:31:01.218Z,100532.20
2017-08-28T19:33:40.940Z,100524.91
2017-08-28T19:36:08.335Z,100531.64
2017-08-28T19:38:35.754Z,100522.18
2017-08-28T19:41:03.270Z,100525.20
2017-08-28T19:43:30.698Z,100524.53
2017-08-28T19:45:58.089Z,100524.87
2017-08-28T19:48:25.595Z,100519.95
2017-08-28T19:50:53.000Z,100525.23
2017-08-28T19:53:20.397Z,100525.19
2017-08-28T19:55:47.943Z,100527.51
2017-08-28T19:58:15.339Z,100528.77
2017-08-28T20:00:42.736Z,100527.26
2017-08-28T20:03:10.288Z,100526.73
2017-08-28T20:05:37.683Z,100519.57
2017-08-28T20:08:05.080Z,100527.45
2017-08-28T20:10:32.623Z,100520.41
2017-08-28T20:13:00.023Z,100520.67
2017-08-28T20:15:27.420Z,100520.10
2017-08-28T20:17:54.843Z,100518.80
2017-08-28T20:20:22.242Z,100515.28
2017-08-28T20:22:49.638Z,100523.31
2017-08-28T20:25:17.196Z,100521.02
2017-08-28T20:27:44.589Z,100522.67
2017-08-28T20:30:11.985Z,100515.09
2017-08-28T20:32:39.699Z,100514.98
2017-08-28T20:35:07.098Z,100513.25
2017-08-28T20:37:34.495Z,100512.33
2017-08-28T20:40:02.051Z,100502.66
2017-08-28T20:42:42.767Z,100509.61
2017-08-28T20:45:10.318Z,100512.47
2017-08-28T20:47:37.715Z,100510.28
2017-08-28T20:50:05.111Z,100509.11
2017-08-28T20:52:32.526Z,100511.58
2017-08-28T20:54:59.920Z,100516.75
2017-08-28T20:57:27.326Z,100517.05
2017-08-28T20:59:55.026Z,100515.61
2017-08-28T21:02:22.422Z,100518.97
2017-08-28T21:04:49.818Z,100516.26
2017-08-28T21:07:17.258Z,100519.01
2017-08-28T21:09:44.663Z,100514.48
2017-08-28T21:12:12.124Z,100511.09
2017-08-28T21:14:39.675Z,100510.83
2017-08-28T21:17:07.066Z,100511.27
2017-08-28T21:19:34.466Z,100508.18
2017-08-28T21:22:02.014Z,100504.94
2017-08-28T21:24:29.410Z,100502.52
2017-08-28T21:26:56.806Z,100510.39
2017-08-28T21:29:24.321Z,100509.00
2017-08-28T21:31:51.715Z,100512.52
2017-08-28T21:34:19.128Z,100514.02
2017-08-28T21:36:46.678Z,100514.70
2017-08-28T21:39:14.082Z,100509.30
2017-08-28T21:41:41.488Z,100512.84
2017-08-28T21:44:08.938Z,100515.58
2017-08-28T21:46:36.355Z,100509.50
2017-08-28T21:49:03.754Z,100511.30
2017-08-28T21:51:31.255Z,100508.19
2017-08-28T21:53:58.654Z,100503.72
2017-08-28T21:56:26.054Z,100509.15
2017-08-28T21:58:53.805Z,100500.88
2017-08-28T22:01:21.207Z,100508.51
2017-08-28T22:03:48.605Z,100506.75
2017-08-28T22:06:16.047Z,100506.45
2017-08-28T22:08:43.447Z,100511.34
2017-08-28T22:11:10.847Z,100513.25
2017-08-28T22:13:38.287Z,100509.17
2017-08-28T22:16:05.678Z,100509.56
2017-08-28T22:18:33.083Z,100508.36
2017-08-28T22:21:00.487Z,100506.05
2017-08-28T22:23:27.879Z,100500.35
2017-08-28T22:25:55.281Z,100499.42
2017-08-28T22:28:23.088Z,100502.66
2017-08-28T22:30:50.478Z,100496.84
2017-08-28T22:33:17.879Z,100502.53
2017-08-28T22:35:45.431Z,100501.59
2017-08-28T22:38:12.826Z,100498.48
2017-08-28T22:40:40.231Z,100500.38
2017-08-28T22:43:07.786Z,100499.96
2017-08-28T22:45:35.183Z,100495.75
2017-08-28T22:48:02.578Z,100500.08
2017-08-28T22:50:30.000Z,100494.53
2017-08-28T22:52:57.398Z,100495.21
2017-08-28T22:55:24.791Z,100493.19
2017-08-28T22:57:52.575Z,100496.04
2017-08-28T23:00:19.970Z,100486.95
2017-08-28T23:02:47.363Z,100488.30
2017-08-28T23:05:14.802Z,100486.41
2017-08-28T23:07:42.211Z,100490.47
2017-08-28T23:10:09.610Z,100491.82
2017-08-28T23:12:37.018Z,100494.13
2017-08-28T23:15:04.410Z,100486.95
2017-08-28T23:17:31.806Z,100488.44
2017-08-28T23:19:59.359Z,100488.56
2017-08-28T23:22:26.762Z,100483.70
2017-08-28T23:24:54.182Z,100487.89
2017-08-28T23:27:21.730Z,100483.58
2017-08-28T23:29:49.127Z,100482.22
2017-08-28T23:32:16.527Z,100481.39
2017-08-28T23:34:44.228Z,100475.42
2017-08-28T23:37:11.628Z,100477.34
2017-08-28T23:39:39.027Z,100475.58
2017-08-28T23:42:06.815Z,100477.20
2017-08-28T23:44:34.211Z,100472.30
2017-08-28T23:47:01.606Z,100476.22
2017-08-28T23:49:29.383Z,100475.00
2017-08-28T23:51:56.782Z,100473.38
2017-08-28T23:54:24.175Z,100469.45
2017-08-28T23:56:51.620Z,100475.71
2017-08-28T23:59:19.026Z,100468.78
